Rankin, Michigan
Current Conditions -  °F | °C
As of 11:53 AM on Friday 31 Oct 2014 (Local Time) from KFNT Reporting Station
Light Rain Light Rain  
Wind Chill:   Ceiling: 1100
Heat Index:   Visibility: 10mi
Dew Point:   Wind: 10mph
Humidity: 82%   Direction: 340°NNW
Pressure: 29.91"   Gusts: NA
Location:  42.9382°N, 83.8244°W
Report Text: KFNT 311553Z 34009KT 10SM -RA OVC011 06/03 A2991 RMK AO2 RAB32 SLP133 P0000 T00610033
Loading
Personal Weather Stations






























Interactive Weather Map
Tropical Storm Tracking
New forecast layout! Learn more

10-Day Weather Forecast

Advertisements
Track Severe Weather on mobile